sensor_id;sensor_type;location;lat;lon;timestamp;temperature;humidity
11059;DHT22;5582;59.272;15.220;2022-07-29T00:01:22;13.20;1.40
11059;DHT22;5582;59.272;15.220;2022-07-29T00:03:48;13.20;1.40
11059;DHT22;5582;59.272;15.220;2022-07-29T00:06:14;13.20;1.40
11059;DHT22;5582;59.272;15.220;2022-07-29T00:08:40;13.10;1.40
11059;DHT22;5582;59.272;15.220;2022-07-29T00:11:06;13.10;1.40
11059;DHT22;5582;59.272;15.220;2022-07-29T00:13:31;13.10;1.40
11059;DHT22;5582;59.272;15.220;2022-07-29T00:15:57;13.00;1.40
11059;DHT22;5582;59.272;15.220;2022-07-29T00:18:23;13.00;1.40
11059;DHT22;5582;59.272;15.220;2022-07-29T00:20:48;13.00;1.40
11059;DHT22;5582;59.272;15.220;2022-07-29T00:23:14;13.00;1.40
11059;DHT22;5582;59.272;15.220;2022-07-29T00:25:39;12.90;1.40
11059;DHT22;5582;59.272;15.220;2022-07-29T00:28:05;12.90;1.40
11059;DHT22;5582;59.272;15.220;2022-07-29T00:30:31;12.90;1.40
11059;DHT22;5582;59.272;15.220;2022-07-29T00:32:57;12.90;1.40
11059;DHT22;5582;59.272;15.220;2022-07-29T00:35:23;12.90;1.40
11059;DHT22;5582;59.272;15.220;2022-07-29T00:38:07;12.90;1.40
11059;DHT22;5582;59.272;15.220;2022-07-29T00:40:33;12.90;1.40
11059;DHT22;5582;59.272;15.220;2022-07-29T00:42:59;12.80;1.40
11059;DHT22;5582;59.272;15.220;2022-07-29T00:45:25;12.80;1.40
11059;DHT22;5582;59.272;15.220;2022-07-29T00:47:50;12.70;1.40
11059;DHT22;5582;59.272;15.220;2022-07-29T00:50:17;12.70;1.40
11059;DHT22;5582;59.272;15.220;2022-07-29T00:52:43;12.70;1.40
11059;DHT22;5582;59.272;15.220;2022-07-29T00:55:11;12.60;1.40
11059;DHT22;5582;59.272;15.220;2022-07-29T00:57:37;12.60;1.40
11059;DHT22;5582;59.272;15.220;2022-07-29T01:00:05;12.60;1.40
11059;DHT22;5582;59.272;15.220;2022-07-29T01:02:31;12.50;1.40
11059;DHT22;5582;59.272;15.220;2022-07-29T01:04:57;12.50;1.40
11059;DHT22;5582;59.272;15.220;2022-07-29T01:07:24;12.60;1.40
11059;DHT22;5582;59.272;15.220;2022-07-29T01:09:51;12.50;1.40
11059;DHT22;5582;59.272;15.220;2022-07-29T01:12:20;12.50;1.40
11059;DHT22;5582;59.272;15.220;2022-07-29T01:14:47;12.40;1.40
11059;DHT22;5582;59.272;15.220;2022-07-29T01:17:20;12.40;1.40
11059;DHT22;5582;59.272;15.220;2022-07-29T01:31:02;12.30;1.40
11059;DHT22;5582;59.272;15.220;2022-07-29T01:33:32;11.60;1.40
11059;DHT22;5582;59.272;15.220;2022-07-29T01:37:26;12.20;1.40
11059;DHT22;5582;59.272;15.220;2022-07-29T01:39:44;12.20;1.40
11059;DHT22;5582;59.272;15.220;2022-07-29T01:42:32;12.20;1.40
11059;DHT22;5582;59.272;15.220;2022-07-29T01:45:05;12.20;1.40
11059;DHT22;5582;59.272;15.220;2022-07-29T01:47:35;12.20;1.40
11059;DHT22;5582;59.272;15.220;2022-07-29T01:50:07;12.20;1.40
11059;DHT22;5582;59.272;15.220;2022-07-29T01:52:42;12.10;1.40
11059;DHT22;5582;59.272;15.220;2022-07-29T01:55:16;12.10;1.40
11059;DHT22;5582;59.272;15.220;2022-07-29T01:57:48;12.10;1.40
11059;DHT22;5582;59.272;15.220;2022-07-29T02:00:15;12.40;1.40
11059;DHT22;5582;59.272;15.220;2022-07-29T02:02:43;12.00;1.40
11059;DHT22;5582;59.272;15.220;2022-07-29T02:05:12;12.10;1.40
11059;DHT22;5582;59.272;15.220;2022-07-29T02:07:40;12.10;1.40
11059;DHT22;5582;59.272;15.220;2022-07-29T02:10:08;12.00;1.40
11059;DHT22;5582;59.272;15.220;2022-07-29T02:12:35;12.00;1.40
11059;DHT22;5582;59.272;15.220;2022-07-29T02:15:03;12.00;1.40
11059;DHT22;5582;59.272;15.220;2022-07-29T02:17:33;11.90;1.40
11059;DHT22;5582;59.272;15.220;2022-07-29T02:20:03;11.90;1.40
11059;DHT22;5582;59.272;15.220;2022-07-29T02:22:31;11.90;1.40
11059;DHT22;5582;59.272;15.220;2022-07-29T02:24:58;11.80;1.40
11059;DHT22;5582;59.272;15.220;2022-07-29T02:27:26;11.80;1.40
11059;DHT22;5582;59.272;15.220;2022-07-29T02:29:53;11.80;1.40
11059;DHT22;5582;59.272;15.220;2022-07-29T02:32:21;12.00;1.40
11059;DHT22;5582;59.272;15.220;2022-07-29T02:34:47;11.70;1.40
11059;DHT22;5582;59.272;15.220;2022-07-29T02:37:16;11.70;1.40
11059;DHT22;5582;59.272;15.220;2022-07-29T02:39:44;11.70;1.40
11059;DHT22;5582;59.272;15.220;2022-07-29T02:42:13;11.70;1.40
11059;DHT22;5582;59.272;15.220;2022-07-29T02:44:40;11.90;1.40
11059;DHT22;5582;59.272;15.220;2022-07-29T02:52:34;11.70;1.40
11059;DHT22;5582;59.272;15.220;2022-07-29T02:57:49;11.60;1.40
11059;DHT22;5582;59.272;15.220;2022-07-29T03:00:17;11.60;1.40
11059;DHT22;5582;59.272;15.220;2022-07-29T03:02:45;11.60;1.40
11059;DHT22;5582;59.272;15.220;2022-07-29T03:05:16;11.60;1.40
11059;DHT22;5582;59.272;15.220;2022-07-29T03:07:46;11.60;1.40
11059;DHT22;5582;59.272;15.220;2022-07-29T03:10:13;11.90;1.40
11059;DHT22;5582;59.272;15.220;2022-07-29T03:12:40;11.80;1.40
11059;DHT22;5582;59.272;15.220;2022-07-29T03:15:06;11.90;1.40
11059;DHT22;5582;59.272;15.220;2022-07-29T03:17:34;11.70;1.40
11059;DHT22;5582;59.272;15.220;2022-07-29T03:20:00;11.60;1.40
11059;DHT22;5582;59.272;15.220;2022-07-29T03:22:27;11.70;1.40
11059;DHT22;5582;59.272;15.220;2022-07-29T03:24:52;11.70;1.40
11059;DHT22;5582;59.272;15.220;2022-07-29T03:27:18;11.70;1.40
11059;DHT22;5582;59.272;15.220;2022-07-29T03:29:44;11.80;1.40
11059;DHT22;5582;59.272;15.220;2022-07-29T03:32:09;11.70;1.40
11059;DHT22;5582;59.272;15.220;2022-07-29T03:34:36;12.10;1.40
11059;DHT22;5582;59.272;15.220;2022-07-29T03:37:03;11.80;1.40
11059;DHT22;5582;59.272;15.220;2022-07-29T03:39:33;11.80;1.40
11059;DHT22;5582;59.272;15.220;2022-07-29T03:42:01;11.80;1.40
11059;DHT22;5582;59.272;15.220;2022-07-29T03:44:27;11.80;1.40
11059;DHT22;5582;59.272;15.220;2022-07-29T03:46:55;11.80;1.40
11059;DHT22;5582;59.272;15.220;2022-07-29T03:49:23;11.20;1.40
11059;DHT22;5582;59.272;15.220;2022-07-29T03:51:50;11.90;1.40
11059;DHT22;5582;59.272;15.220;2022-07-29T03:54:16;11.90;1.40
11059;DHT22;5582;59.272;15.220;2022-07-29T03:56:43;11.90;1.40
11059;DHT22;5582;59.272;15.220;2022-07-29T03:59:14;11.90;1.40
11059;DHT22;5582;59.272;15.220;2022-07-29T04:01:41;11.90;1.40
11059;DHT22;5582;59.272;15.220;2022-07-29T04:04:07;12.00;1.40
11059;DHT22;5582;59.272;15.220;2022-07-29T04:06:43;12.00;1.40
11059;DHT22;5582;59.272;15.220;2022-07-29T04:09:10;12.00;1.40
11059;DHT22;5582;59.272;15.220;2022-07-29T04:11:38;12.00;1.40
11059;DHT22;5582;59.272;15.220;2022-07-29T04:14:04;12.00;1.40
11059;DHT22;5582;59.272;15.220;2022-07-29T04:16:29;12.00;1.40
11059;DHT22;5582;59.272;15.220;2022-07-29T04:18:55;12.00;1.40
11059;DHT22;5582;59.272;15.220;2022-07-29T04:21:21;12.00;1.40
11059;DHT22;5582;59.272;15.220;2022-07-29T04:23:46;12.00;1.40
11059;DHT22;5582;59.272;15.220;2022-07-29T04:26:18;12.10;1.40
11059;DHT22;5582;59.272;15.220;2022-07-29T04:28:45;12.20;1.40
11059;DHT22;5582;59.272;15.220;2022-07-29T04:31:11;12.20;1.40
11059;DHT22;5582;59.272;15.220;2022-07-29T04:33:37;12.30;1.40
11059;DHT22;5582;59.272;15.220;2022-07-29T04:36:03;12.30;1.40
11059;DHT22;5582;59.272;15.220;2022-07-29T04:38:29;12.30;1.40
11059;DHT22;5582;59.272;15.220;2022-07-29T04:40:54;12.30;1.40
11059;DHT22;5582;59.272;15.220;2022-07-29T04:43:20;12.40;1.40
11059;DHT22;5582;59.272;15.220;2022-07-29T04:45:46;12.50;1.40
11059;DHT22;5582;59.272;15.220;2022-07-29T04:48:11;12.60;1.40
11059;DHT22;5582;59.272;15.220;2022-07-29T04:50:40;12.60;1.40
11059;DHT22;5582;59.272;15.220;2022-07-29T04:53:06;12.70;1.40
11059;DHT22;5582;59.272;15.220;2022-07-29T04:55:33;12.80;1.40
11059;DHT22;5582;59.272;15.220;2022-07-29T04:57:58;12.90;1.40
11059;DHT22;5582;59.272;15.220;2022-07-29T05:00:24;12.90;1.40
11059;DHT22;5582;59.272;15.220;2022-07-29T05:02:50;13.00;1.40
11059;DHT22;5582;59.272;15.220;2022-07-29T05:05:16;13.00;1.40
11059;DHT22;5582;59.272;15.220;2022-07-29T05:07:41;13.20;1.40
11059;DHT22;5582;59.272;15.220;2022-07-29T05:10:07;13.20;1.40
11059;DHT22;5582;59.272;15.220;2022-07-29T05:12:33;13.40;1.40
11059;DHT22;5582;59.272;15.220;2022-07-29T05:14:59;13.70;1.40
11059;DHT22;5582;59.272;15.220;2022-07-29T05:17:25;13.80;1.40
11059;DHT22;5582;59.272;15.220;2022-07-29T05:19:50;14.00;1.40
11059;DHT22;5582;59.272;15.220;2022-07-29T05:22:20;14.10;1.40
11059;DHT22;5582;59.272;15.220;2022-07-29T05:24:46;14.10;1.40
11059;DHT22;5582;59.272;15.220;2022-07-29T05:27:12;14.20;1.40
11059;DHT22;5582;59.272;15.220;2022-07-29T05:29:37;14.30;1.40
11059;DHT22;5582;59.272;15.220;2022-07-29T05:32:04;14.30;1.40
11059;DHT22;5582;59.272;15.220;2022-07-29T05:34:30;14.40;1.40
11059;DHT22;5582;59.272;15.220;2022-07-29T05:36:56;14.50;1.40
11059;DHT22;5582;59.272;15.220;2022-07-29T05:39:22;14.60;1.40
11059;DHT22;5582;59.272;15.220;2022-07-29T05:41:48;14.60;1.40
11059;DHT22;5582;59.272;15.220;2022-07-29T05:44:13;14.70;1.40
11059;DHT22;5582;59.272;15.220;2022-07-29T05:46:39;14.70;1.40
11059;DHT22;5582;59.272;15.220;2022-07-29T05:49:05;14.80;1.40
11059;DHT22;5582;59.272;15.220;2022-07-29T05:51:32;14.90;1.40
11059;DHT22;5582;59.272;15.220;2022-07-29T05:53:58;14.90;1.40
11059;DHT22;5582;59.272;15.220;2022-07-29T05:56:24;14.90;1.40
11059;DHT22;5582;59.272;15.220;2022-07-29T05:58:50;15.00;1.40
11059;DHT22;5582;59.272;15.220;2022-07-29T06:01:16;15.10;1.40
11059;DHT22;5582;59.272;15.220;2022-07-29T06:03:41;15.10;1.40
11059;DHT22;5582;59.272;15.220;2022-07-29T06:06:07;15.20;1.40
11059;DHT22;5582;59.272;15.220;2022-07-29T06:08:33;15.20;1.40
11059;DHT22;5582;59.272;15.220;2022-07-29T06:11:00;15.40;1.40
11059;DHT22;5582;59.272;15.220;2022-07-29T06:13:26;15.50;1.40
11059;DHT22;5582;59.272;15.220;2022-07-29T06:15:51;15.50;1.40
11059;DHT22;5582;59.272;15.220;2022-07-29T06:18:17;15.60;1.40
11059;DHT22;5582;59.272;15.220;2022-07-29T06:20:43;15.70;1.40
11059;DHT22;5582;59.272;15.220;2022-07-29T06:23:08;16.10;1.40
11059;DHT22;5582;59.272;15.220;2022-07-29T06:25:35;15.90;1.40
11059;DHT22;5582;59.272;15.220;2022-07-29T06:28:02;15.90;1.40
11059;DHT22;5582;59.272;15.220;2022-07-29T06:30:28;15.90;1.40
11059;DHT22;5582;59.272;15.220;2022-07-29T06:32:54;16.00;1.40
11059;DHT22;5582;59.272;15.220;2022-07-29T06:35:20;16.10;1.40
11059;DHT22;5582;59.272;15.220;2022-07-29T06:37:46;16.20;1.40
11059;DHT22;5582;59.272;15.220;2022-07-29T06:40:12;16.30;1.40
11059;DHT22;5582;59.272;15.220;2022-07-29T06:42:56;16.30;1.40
11059;DHT22;5582;59.272;15.220;2022-07-29T06:45:22;16.50;1.40
11059;DHT22;5582;59.272;15.220;2022-07-29T06:47:48;16.60;1.40
11059;DHT22;5582;59.272;15.220;2022-07-29T06:50:15;16.70;1.40
11059;DHT22;5582;59.272;15.220;2022-07-29T06:52:41;16.80;1.40
11059;DHT22;5582;59.272;15.220;2022-07-29T06:55:07;16.90;1.40
11059;DHT22;5582;59.272;15.220;2022-07-29T06:57:33;16.90;1.40
11059;DHT22;5582;59.272;15.220;2022-07-29T06:59:59;17.00;1.40
11059;DHT22;5582;59.272;15.220;2022-07-29T07:02:25;17.10;1.40
11059;DHT22;5582;59.272;15.220;2022-07-29T07:04:51;17.20;1.40
11059;DHT22;5582;59.272;15.220;2022-07-29T07:07:16;17.30;1.40
11059;DHT22;5582;59.272;15.220;2022-07-29T07:09:42;17.40;1.40
11059;DHT22;5582;59.272;15.220;2022-07-29T07:12:08;17.50;1.40
11059;DHT22;5582;59.272;15.220;2022-07-29T07:14:33;17.50;1.40
11059;DHT22;5582;59.272;15.220;2022-07-29T07:16:59;17.60;1.40
11059;DHT22;5582;59.272;15.220;2022-07-29T07:19:26;17.60;1.40
11059;DHT22;5582;59.272;15.220;2022-07-29T07:21:52;17.70;1.40
11059;DHT22;5582;59.272;15.220;2022-07-29T07:24:18;17.80;1.40
11059;DHT22;5582;59.272;15.220;2022-07-29T07:26:44;17.90;1.40
11059;DHT22;5582;59.272;15.220;2022-07-29T07:29:10;18.00;1.40
11059;DHT22;5582;59.272;15.220;2022-07-29T07:31:37;18.20;1.40
11059;DHT22;5582;59.272;15.220;2022-07-29T07:34:03;18.30;1.40
11059;DHT22;5582;59.272;15.220;2022-07-29T07:36:29;18.40;1.40
11059;DHT22;5582;59.272;15.220;2022-07-29T07:38:54;18.50;1.40
11059;DHT22;5582;59.272;15.220;2022-07-29T07:41:20;18.60;1.40
11059;DHT22;5582;59.272;15.220;2022-07-29T07:43:46;18.70;1.40
11059;DHT22;5582;59.272;15.220;2022-07-29T07:46:12;18.70;1.40
11059;DHT22;5582;59.272;15.220;2022-07-29T07:48:37;18.70;1.40
11059;DHT22;5582;59.272;15.220;2022-07-29T07:51:03;18.70;1.40
11059;DHT22;5582;59.272;15.220;2022-07-29T07:53:29;18.80;1.40
11059;DHT22;5582;59.272;15.220;2022-07-29T07:55:55;18.90;1.40
11059;DHT22;5582;59.272;15.220;2022-07-29T07:58:21;19.00;1.40
11059;DHT22;5582;59.272;15.220;2022-07-29T08:00:47;19.10;1.40
11059;DHT22;5582;59.272;15.220;2022-07-29T08:03:13;19.20;1.40
11059;DHT22;5582;59.272;15.220;2022-07-29T08:05:39;19.30;1.40
11059;DHT22;5582;59.272;15.220;2022-07-29T08:08:05;19.40;1.40
11059;DHT22;5582;59.272;15.220;2022-07-29T08:10:31;19.50;1.40
11059;DHT22;5582;59.272;15.220;2022-07-29T08:13:15;19.70;1.40
11059;DHT22;5582;59.272;15.220;2022-07-29T08:15:41;19.70;1.40
11059;DHT22;5582;59.272;15.220;2022-07-29T08:18:08;19.80;1.40
11059;DHT22;5582;59.272;15.220;2022-07-29T08:20:35;19.90;1.40
11059;DHT22;5582;59.272;15.220;2022-07-29T08:23:05;19.90;1.40
11059;DHT22;5582;59.272;15.220;2022-07-29T08:25:32;20.00;1.40
11059;DHT22;5582;59.272;15.220;2022-07-29T08:27:58;20.00;1.40
11059;DHT22;5582;59.272;15.220;2022-07-29T08:30:24;20.10;1.40
11059;DHT22;5582;59.272;15.220;2022-07-29T08:32:49;20.10;1.40
11059;DHT22;5582;59.272;15.220;2022-07-29T08:35:18;20.30;1.40
11059;DHT22;5582;59.272;15.220;2022-07-29T08:37:44;20.30;1.40
11059;DHT22;5582;59.272;15.220;2022-07-29T08:40:10;20.40;1.40
11059;DHT22;5582;59.272;15.220;2022-07-29T08:42:36;20.50;1.40
11059;DHT22;5582;59.272;15.220;2022-07-29T08:45:03;20.50;1.40
11059;DHT22;5582;59.272;15.220;2022-07-29T08:47:29;20.50;1.40
11059;DHT22;5582;59.272;15.220;2022-07-29T08:49:55;20.60;1.40
11059;DHT22;5582;59.272;15.220;2022-07-29T08:52:22;20.50;1.40
11059;DHT22;5582;59.272;15.220;2022-07-29T08:54:52;20.50;1.40
11059;DHT22;5582;59.272;15.220;2022-07-29T08:57:18;20.60;1.40
11059;DHT22;5582;59.272;15.220;2022-07-29T08:59:46;20.70;1.40
11059;DHT22;5582;59.272;15.220;2022-07-29T09:02:22;20.90;1.40
11059;DHT22;5582;59.272;15.220;2022-07-29T09:04:48;21.00;1.40
11059;DHT22;5582;59.272;15.220;2022-07-29T09:07:15;21.10;1.40
11059;DHT22;5582;59.272;15.220;2022-07-29T09:09:42;21.10;1.40
11059;DHT22;5582;59.272;15.220;2022-07-29T09:12:11;21.10;1.40
11059;DHT22;5582;59.272;15.220;2022-07-29T09:14:40;21.10;1.40
11059;DHT22;5582;59.272;15.220;2022-07-29T09:17:07;21.20;1.40
11059;DHT22;5582;59.272;15.220;2022-07-29T09:19:36;21.30;1.40
11059;DHT22;5582;59.272;15.220;2022-07-29T09:22:04;21.30;1.40
11059;DHT22;5582;59.272;15.220;2022-07-29T09:24:37;21.40;1.40
11059;DHT22;5582;59.272;15.220;2022-07-29T09:27:09;21.60;1.40
11059;DHT22;5582;59.272;15.220;2022-07-29T09:29:35;21.60;1.40
11059;DHT22;5582;59.272;15.220;2022-07-29T09:32:06;21.70;1.40
11059;DHT22;5582;59.272;15.220;2022-07-29T09:34:33;21.90;1.40
11059;DHT22;5582;59.272;15.220;2022-07-29T09:36:58;21.80;1.40
11059;DHT22;5582;59.272;15.220;2022-07-29T09:39:32;22.20;1.40
11059;DHT22;5582;59.272;15.220;2022-07-29T09:42:03;22.20;1.40
11059;DHT22;5582;59.272;15.220;2022-07-29T09:44:49;22.30;1.40
11059;DHT22;5582;59.272;15.220;2022-07-29T09:47:16;22.30;1.40
11059;DHT22;5582;59.272;15.220;2022-07-29T09:49:58;22.40;1.40
11059;DHT22;5582;59.272;15.220;2022-07-29T09:52:29;22.50;1.40
11059;DHT22;5582;59.272;15.220;2022-07-29T09:55:08;22.50;1.40
11059;DHT22;5582;59.272;15.220;2022-07-29T09:57:34;22.70;1.40
11059;DHT22;5582;59.272;15.220;2022-07-29T10:00:01;22.80;1.40
11059;DHT22;5582;59.272;15.220;2022-07-29T10:02:31;22.80;1.40
11059;DHT22;5582;59.272;15.220;2022-07-29T10:04:57;23.00;1.40
11059;DHT22;5582;59.272;15.220;2022-07-29T10:07:24;22.90;1.40
11059;DHT22;5582;59.272;15.220;2022-07-29T10:09:55;22.80;1.40
11059;DHT22;5582;59.272;15.220;2022-07-29T10:12:22;22.70;1.40
11059;DHT22;5582;59.272;15.220;2022-07-29T10:14:48;22.60;1.40
11059;DHT22;5582;59.272;15.220;2022-07-29T10:17:15;22.70;1.40
11059;DHT22;5582;59.272;15.220;2022-07-29T10:19:42;22.60;1.40
11059;DHT22;5582;59.272;15.220;2022-07-29T10:22:09;22.70;1.40
11059;DHT22;5582;59.272;15.220;2022-07-29T10:24:37;22.70;1.40
11059;DHT22;5582;59.272;15.220;2022-07-29T10:27:06;22.80;1.40
11059;DHT22;5582;59.272;15.220;2022-07-29T10:29:32;23.10;1.40
11059;DHT22;5582;59.272;15.220;2022-07-29T10:32:20;23.30;1.40
11059;DHT22;5582;59.272;15.220;2022-07-29T10:42:55;23.70;1.40
11059;DHT22;5582;59.272;15.220;2022-07-29T10:45:24;23.90;1.40
11059;DHT22;5582;59.272;15.220;2022-07-29T10:48:03;23.90;1.40
11059;DHT22;5582;59.272;15.220;2022-07-29T10:50:53;24.20;1.40
11059;DHT22;5582;59.272;15.220;2022-07-29T10:53:23;24.60;1.40
11059;DHT22;5582;59.272;15.220;2022-07-29T10:55:50;24.90;1.40
11059;DHT22;5582;59.272;15.220;2022-07-29T10:58:17;24.90;1.40
11059;DHT22;5582;59.272;15.220;2022-07-29T11:00:44;24.90;1.40
11059;DHT22;5582;59.272;15.220;2022-07-29T11:03:42;24.70;1.40
11059;DHT22;5582;59.272;15.220;2022-07-29T11:06:10;24.60;1.40
11059;DHT22;5582;59.272;15.220;2022-07-29T11:08:35;24.40;1.40
11059;DHT22;5582;59.272;15.220;2022-07-29T11:13:47;24.20;1.40
11059;DHT22;5582;59.272;15.220;2022-07-29T11:16:14;24.10;1.40
11059;DHT22;5582;59.272;15.220;2022-07-29T11:21:43;24.20;1.40
11059;DHT22;5582;59.272;15.220;2022-07-29T11:24:20;24.20;1.40
11059;DHT22;5582;59.272;15.220;2022-07-29T11:29:37;24.30;1.40
11059;DHT22;5582;59.272;15.220;2022-07-29T11:32:14;24.50;1.40
11059;DHT22;5582;59.272;15.220;2022-07-29T11:34:41;24.70;1.40
11059;DHT22;5582;59.272;15.220;2022-07-29T11:39:40;24.90;1.40
11059;DHT22;5582;59.272;15.220;2022-07-29T11:45:02;24.90;1.40
11059;DHT22;5582;59.272;15.220;2022-07-29T11:47:38;24.90;1.40
11059;DHT22;5582;59.272;15.220;2022-07-29T11:50:10;24.80;1.40
11059;DHT22;5582;59.272;15.220;2022-07-29T11:52:43;25.10;1.40
11059;DHT22;5582;59.272;15.220;2022-07-29T11:55:12;25.40;1.40
11059;DHT22;5582;59.272;15.220;2022-07-29T11:57:52;25.60;1.40
11059;DHT22;5582;59.272;15.220;2022-07-29T12:00:33;25.70;1.40
11059;DHT22;5582;59.272;15.220;2022-07-29T12:03:01;25.50;1.40
11059;DHT22;5582;59.272;15.220;2022-07-29T12:05:53;25.30;1.40
11059;DHT22;5582;59.272;15.220;2022-07-29T12:08:22;25.00;1.40
11059;DHT22;5582;59.272;15.220;2022-07-29T12:10:49;25.10;1.40
11059;DHT22;5582;59.272;15.220;2022-07-29T12:13:17;25.30;1.40
11059;DHT22;5582;59.272;15.220;2022-07-29T12:15:51;25.50;1.40
11059;DHT22;5582;59.272;15.220;2022-07-29T12:18:18;25.50;1.40
11059;DHT22;5582;59.272;15.220;2022-07-29T12:20:44;25.40;1.40
11059;DHT22;5582;59.272;15.220;2022-07-29T12:23:11;25.10;1.40
11059;DHT22;5582;59.272;15.220;2022-07-29T12:25:40;24.90;1.40
11059;DHT22;5582;59.272;15.220;2022-07-29T12:28:08;24.80;1.40
11059;DHT22;5582;59.272;15.220;2022-07-29T12:30:45;24.70;1.40
11059;DHT22;5582;59.272;15.220;2022-07-29T12:33:16;24.80;1.40
11059;DHT22;5582;59.272;15.220;2022-07-29T12:35:44;25.00;1.40
11059;DHT22;5582;59.272;15.220;2022-07-29T12:38:11;25.00;1.40
11059;DHT22;5582;59.272;15.220;2022-07-29T12:40:38;24.90;1.40
11059;DHT22;5582;59.272;15.220;2022-07-29T12:43:14;24.70;1.40
11059;DHT22;5582;59.272;15.220;2022-07-29T12:45:43;24.80;1.40
11059;DHT22;5582;59.272;15.220;2022-07-29T12:48:09;24.80;1.40
11059;DHT22;5582;59.272;15.220;2022-07-29T12:50:50;24.80;1.40
11059;DHT22;5582;59.272;15.220;2022-07-29T12:53:17;25.30;1.40
11059;DHT22;5582;59.272;15.220;2022-07-29T12:55:48;26.10;1.40
11059;DHT22;5582;59.272;15.220;2022-07-29T12:58:30;27.20;1.40
11059;DHT22;5582;59.272;15.220;2022-07-29T13:01:16;28.30;1.40
11059;DHT22;5582;59.272;15.220;2022-07-29T13:03:58;29.30;1.40
11059;DHT22;5582;59.272;15.220;2022-07-29T13:06:41;29.20;1.40
11059;DHT22;5582;59.272;15.220;2022-07-29T13:11:50;28.60;1.40
11059;DHT22;5582;59.272;15.220;2022-07-29T13:14:43;27.50;1.40
11059;DHT22;5582;59.272;15.220;2022-07-29T13:17:20;26.50;1.40
11059;DHT22;5582;59.272;15.220;2022-07-29T13:19:48;25.70;1.40
11059;DHT22;5582;59.272;15.220;2022-07-29T13:22:24;25.20;1.40
11059;DHT22;5582;59.272;15.220;2022-07-29T13:24:54;24.80;1.40
11059;DHT22;5582;59.272;15.220;2022-07-29T13:27:24;24.50;1.40
11059;DHT22;5582;59.272;15.220;2022-07-29T13:29:50;24.30;1.40
11059;DHT22;5582;59.272;15.220;2022-07-29T13:32:20;24.10;1.40
11059;DHT22;5582;59.272;15.220;2022-07-29T13:34:46;24.00;1.40
11059;DHT22;5582;59.272;15.220;2022-07-29T13:37:11;23.90;1.40
11059;DHT22;5582;59.272;15.220;2022-07-29T13:39:37;23.80;1.40
11059;DHT22;5582;59.272;15.220;2022-07-29T13:42:04;23.70;1.40
11059;DHT22;5582;59.272;15.220;2022-07-29T13:44:30;23.60;1.40
11059;DHT22;5582;59.272;15.220;2022-07-29T13:46:56;23.60;1.40
11059;DHT22;5582;59.272;15.220;2022-07-29T13:49:21;23.60;1.40
11059;DHT22;5582;59.272;15.220;2022-07-29T13:51:49;23.70;1.40
11059;DHT22;5582;59.272;15.220;2022-07-29T13:54:15;23.90;1.40
11059;DHT22;5582;59.272;15.220;2022-07-29T13:56:40;23.90;1.40
11059;DHT22;5582;59.272;15.220;2022-07-29T13:59:06;23.90;1.40
11059;DHT22;5582;59.272;15.220;2022-07-29T14:01:34;23.80;1.40
11059;DHT22;5582;59.272;15.220;2022-07-29T14:03:59;25.00;1.40
11059;DHT22;5582;59.272;15.220;2022-07-29T14:06:25;28.90;1.40
11059;DHT22;5582;59.272;15.220;2022-07-29T14:08:50;32.40;1.40
11059;DHT22;5582;59.272;15.220;2022-07-29T14:11:16;34.90;1.40
11059;DHT22;5582;59.272;15.220;2022-07-29T14:13:42;36.60;1.40
11059;DHT22;5582;59.272;15.220;2022-07-29T14:16:07;37.70;1.40
11059;DHT22;5582;59.272;15.220;2022-07-29T14:18:33;38.30;1.40
11059;DHT22;5582;59.272;15.220;2022-07-29T14:20:59;38.90;1.40
11059;DHT22;5582;59.272;15.220;2022-07-29T14:23:24;39.50;1.40
11059;DHT22;5582;59.272;15.220;2022-07-29T14:25:50;39.60;1.40
11059;DHT22;5582;59.272;15.220;2022-07-29T14:28:16;39.90;1.40
11059;DHT22;5582;59.272;15.220;2022-07-29T14:30:42;40.50;1.40
11059;DHT22;5582;59.272;15.220;2022-07-29T14:33:08;40.80;1.40
11059;DHT22;5582;59.272;15.220;2022-07-29T14:35:34;41.10;1.40
11059;DHT22;5582;59.272;15.220;2022-07-29T14:37:59;40.20;1.40
11059;DHT22;5582;59.272;15.220;2022-07-29T14:40:25;39.60;1.40
11059;DHT22;5582;59.272;15.220;2022-07-29T14:42:51;39.70;1.40
11059;DHT22;5582;59.272;15.220;2022-07-29T14:45:17;40.20;1.40
11059;DHT22;5582;59.272;15.220;2022-07-29T14:47:42;40.40;1.40
11059;DHT22;5582;59.272;15.220;2022-07-29T14:50:08;40.70;1.40
11059;DHT22;5582;59.272;15.220;2022-07-29T14:52:35;40.70;1.40
11059;DHT22;5582;59.272;15.220;2022-07-29T14:55:01;40.80;1.40
11059;DHT22;5582;59.272;15.220;2022-07-29T14:57:27;40.40;1.40
11059;DHT22;5582;59.272;15.220;2022-07-29T14:59:52;38.30;1.40
11059;DHT22;5582;59.272;15.220;2022-07-29T15:02:18;35.70;1.40
11059;DHT22;5582;59.272;15.220;2022-07-29T15:04:44;33.50;1.40
11059;DHT22;5582;59.272;15.220;2022-07-29T15:07:11;31.80;1.40
11059;DHT22;5582;59.272;15.220;2022-07-29T15:09:37;31.10;1.40
11059;DHT22;5582;59.272;15.220;2022-07-29T15:12:02;30.40;1.40
11059;DHT22;5582;59.272;15.220;2022-07-29T15:14:28;29.60;1.40
11059;DHT22;5582;59.272;15.220;2022-07-29T15:16:54;28.80;1.40
11059;DHT22;5582;59.272;15.220;2022-07-29T15:19:20;28.10;1.40
11059;DHT22;5582;59.272;15.220;2022-07-29T15:21:45;27.70;1.40
11059;DHT22;5582;59.272;15.220;2022-07-29T15:24:11;27.40;1.40
11059;DHT22;5582;59.272;15.220;2022-07-29T15:26:37;27.20;1.40
11059;DHT22;5582;59.272;15.220;2022-07-29T15:29:02;26.90;1.40
11059;DHT22;5582;59.272;15.220;2022-07-29T15:31:28;26.60;1.40
11059;DHT22;5582;59.272;15.220;2022-07-29T15:33:53;26.60;1.40
11059;DHT22;5582;59.272;15.220;2022-07-29T15:36:19;26.60;1.40
11059;DHT22;5582;59.272;15.220;2022-07-29T15:38:45;26.50;1.40
11059;DHT22;5582;59.272;15.220;2022-07-29T15:41:14;26.50;1.40
11059;DHT22;5582;59.272;15.220;2022-07-29T15:43:46;26.50;1.40
11059;DHT22;5582;59.272;15.220;2022-07-29T15:46:17;26.50;1.40
11059;DHT22;5582;59.272;15.220;2022-07-29T15:49:03;26.40;1.40
11059;DHT22;5582;59.272;15.220;2022-07-29T15:51:29;26.40;1.40
11059;DHT22;5582;59.272;15.220;2022-07-29T15:53:54;26.20;1.40
11059;DHT22;5582;59.272;15.220;2022-07-29T15:56:21;26.00;1.40
11059;DHT22;5582;59.272;15.220;2022-07-29T15:58:47;25.80;1.40
11059;DHT22;5582;59.272;15.220;2022-07-29T16:01:13;25.70;1.40
11059;DHT22;5582;59.272;15.220;2022-07-29T16:03:39;25.50;1.40
11059;DHT22;5582;59.272;15.220;2022-07-29T16:06:04;25.30;1.40
11059;DHT22;5582;59.272;15.220;2022-07-29T16:08:31;25.10;1.40
11059;DHT22;5582;59.272;15.220;2022-07-29T16:10:56;25.00;1.40
11059;DHT22;5582;59.272;15.220;2022-07-29T16:13:22;24.90;1.40
11059;DHT22;5582;59.272;15.220;2022-07-29T16:15:47;24.90;1.40
11059;DHT22;5582;59.272;15.220;2022-07-29T16:18:13;24.80;1.40
11059;DHT22;5582;59.272;15.220;2022-07-29T16:20:39;24.70;1.40
11059;DHT22;5582;59.272;15.220;2022-07-29T16:23:06;24.60;1.40
11059;DHT22;5582;59.272;15.220;2022-07-29T16:25:34;24.60;1.40
11059;DHT22;5582;59.272;15.220;2022-07-29T16:28:00;24.50;1.40
11059;DHT22;5582;59.272;15.220;2022-07-29T16:30:26;24.40;1.40
11059;DHT22;5582;59.272;15.220;2022-07-29T16:32:51;24.40;1.40
11059;DHT22;5582;59.272;15.220;2022-07-29T16:35:17;24.40;1.40